createdAt,value
2019-02-12T00:01:39.773Z,4.20
2019-02-12T00:03:43.207Z,4.20
2019-02-12T00:05:46.632Z,4.20
2019-02-12T00:07:50.114Z,4.20
2019-02-12T00:09:53.549Z,4.20
2019-02-12T00:11:57.217Z,4.30
2019-02-12T00:14:00.678Z,4.20
2019-02-12T00:16:04.095Z,4.20
2019-02-12T00:18:07.524Z,4.20
2019-02-12T00:20:10.932Z,4.20
2019-02-12T00:22:14.420Z,4.20
2019-02-12T00:24:17.875Z,4.30
2019-02-12T00:26:21.304Z,4.30
2019-02-12T00:28:26.627Z,4.20
2019-02-12T00:30:30.107Z,4.30
2019-02-12T00:32:33.812Z,4.20
2019-02-12T00:34:37.197Z,4.20
2019-02-12T00:36:40.668Z,4.20
2019-02-12T00:38:44.109Z,4.20
2019-02-12T00:40:47.604Z,4.20
2019-02-12T00:42:51.018Z,4.20
2019-02-12T00:44:54.466Z,4.20
2019-02-12T00:46:57.917Z,4.10
2019-02-12T00:49:01.368Z,4.20
2019-02-12T00:51:04.808Z,4.20
2019-02-12T00:53:08.217Z,4.20
2019-02-12T00:55:11.670Z,4.10
2019-02-12T00:57:15.146Z,4.10
2019-02-12T00:59:18.600Z,4.00
2019-02-12T01:01:22.458Z,4.00
2019-02-12T01:03:25.960Z,4.00
2019-02-12T01:05:29.425Z,4.00
2019-02-12T01:07:32.927Z,4.00
2019-02-12T01:09:36.420Z,3.90
2019-02-12T01:11:39.872Z,3.90
2019-02-12T01:13:43.376Z,3.90
2019-02-12T01:15:46.785Z,3.90
2019-02-12T01:17:50.272Z,3.90
2019-02-12T01:19:53.729Z,3.90
2019-02-12T01:21:57.139Z,3.90
2019-02-12T01:24:00.625Z,3.90
2019-02-12T01:26:04.113Z,3.80
2019-02-12T01:28:07.591Z,3.80
2019-02-12T01:30:12.326Z,3.80
2019-02-12T01:32:15.822Z,3.80
2019-02-12T01:34:19.259Z,3.70
2019-02-12T01:36:22.720Z,3.80
2019-02-12T01:38:26.192Z,3.70
2019-02-12T01:40:29.675Z,3.70
2019-02-12T01:42:33.110Z,3.70
2019-02-12T01:44:36.591Z,3.70
2019-02-12T01:46:40.057Z,3.60
2019-02-12T01:48:43.555Z,3.60
2019-02-12T01:50:47.119Z,3.70
2019-02-12T01:52:50.585Z,3.70
2019-02-12T01:54:54.017Z,3.70
2019-02-12T01:56:57.414Z,3.60
2019-02-12T01:59:00.861Z,3.60
2019-02-12T02:01:04.295Z,3.60
2019-02-12T02:03:07.769Z,3.60
2019-02-12T02:05:11.189Z,3.60
2019-02-12T02:07:14.753Z,3.50
2019-02-12T02:09:18.202Z,3.50
2019-02-12T02:11:21.608Z,3.60
2019-02-12T02:13:25.112Z,3.50
2019-02-12T02:15:28.668Z,3.50
2019-02-12T02:17:32.139Z,3.50
2019-02-12T02:19:35.588Z,3.60
2019-02-12T02:21:44.081Z,3.60
2019-02-12T02:23:43.212Z,3.60
2019-02-12T02:25:46.667Z,3.60
2019-02-12T02:27:50.104Z,3.60
2019-02-12T02:29:53.519Z,3.70
2019-02-12T02:31:56.993Z,3.70
2019-02-12T02:34:00.406Z,3.70
2019-02-12T02:36:03.873Z,3.70
2019-02-12T02:38:08.407Z,3.60
2019-02-12T02:40:11.828Z,3.70
2019-02-12T02:42:15.245Z,3.60
2019-02-12T02:44:18.689Z,3.70
2019-02-12T02:46:22.146Z,3.60
2019-02-12T02:48:25.659Z,3.70
2019-02-12T02:50:29.093Z,3.60
2019-02-12T02:52:32.592Z,3.60
2019-02-12T02:54:36.044Z,3.70
2019-02-12T02:56:39.466Z,3.70
2019-02-12T02:58:42.945Z,3.70
2019-02-12T03:00:46.412Z,3.70
2019-02-12T03:02:49.933Z,3.70
2019-02-12T03:04:53.416Z,3.80
2019-02-12T03:06:56.825Z,3.70
2019-02-12T03:09:00.363Z,3.80
2019-02-12T03:11:03.904Z,3.80
2019-02-12T03:13:07.387Z,3.80
2019-02-12T03:15:10.958Z,3.80
2019-02-12T03:17:14.353Z,3.80
2019-02-12T03:19:17.768Z,3.80
2019-02-12T03:21:21.253Z,3.80
2019-02-12T03:23:24.643Z,3.80
2019-02-12T03:25:28.096Z,3.80
2019-02-12T03:27:31.674Z,3.80
2019-02-12T03:29:35.056Z,3.90
2019-02-12T03:31:38.479Z,3.90
2019-02-12T03:33:41.975Z,3.80
2019-02-12T03:35:45.447Z,3.80
2019-02-12T03:37:48.945Z,3.80
2019-02-12T03:39:52.437Z,3.80
2019-02-12T03:41:55.930Z,3.80
2019-02-12T03:43:59.394Z,3.90
2019-02-12T03:46:02.824Z,3.90
2019-02-12T03:48:06.299Z,3.90
2019-02-12T03:50:09.940Z,3.80
2019-02-12T03:52:14.290Z,3.80
2019-02-12T03:54:17.820Z,3.80
2019-02-12T03:56:21.300Z,3.80
2019-02-12T03:58:24.768Z,3.80
2019-02-12T04:00:28.302Z,3.70
2019-02-12T04:02:31.830Z,3.70
2019-02-12T04:04:35.326Z,3.70
2019-02-12T04:06:38.809Z,3.70
2019-02-12T04:08:42.287Z,3.70
2019-02-12T04:10:45.740Z,3.70
2019-02-12T04:12:49.258Z,3.70
2019-02-12T04:14:52.721Z,3.70
2019-02-12T04:16:56.197Z,3.70
2019-02-12T04:18:59.659Z,3.70
2019-02-12T04:21:03.131Z,3.60
2019-02-12T04:23:06.593Z,3.60
2019-02-12T04:25:10.090Z,3.70
2019-02-12T04:27:13.564Z,3.70
2019-02-12T04:29:16.980Z,3.70
2019-02-12T04:31:20.444Z,3.70
2019-02-12T04:33:23.886Z,3.60
2019-02-12T04:35:27.830Z,3.70
2019-02-12T04:37:31.330Z,3.70
2019-02-12T04:39:34.822Z,3.70
2019-02-12T04:41:38.302Z,3.70
2019-02-12T04:43:41.745Z,3.70
2019-02-12T04:45:45.176Z,3.70
2019-02-12T04:47:48.664Z,3.70
2019-02-12T04:49:52.132Z,3.60
2019-02-12T04:51:55.598Z,3.70
2019-02-12T04:53:59.034Z,3.70
2019-02-12T04:56:02.460Z,3.70
2019-02-12T04:58:05.906Z,3.60
2019-02-12T05:00:10.992Z,3.60
2019-02-12T05:02:14.452Z,3.60
2019-02-12T05:04:17.947Z,3.60
2019-02-12T05:06:21.454Z,3.60
2019-02-12T05:08:24.949Z,3.60
2019-02-12T05:10:29.652Z,3.50
2019-02-12T05:12:33.093Z,3.60
2019-02-12T05:14:36.582Z,3.50
2019-02-12T05:16:40.019Z,3.50
2019-02-12T05:18:43.462Z,3.50
2019-02-12T05:20:46.949Z,3.40
2019-02-12T05:22:50.589Z,3.40
2019-02-12T05:24:54.001Z,3.40
2019-02-12T05:26:57.494Z,3.40
2019-02-12T05:29:01.056Z,3.40
2019-02-12T05:31:04.470Z,3.40
2019-02-12T05:33:07.885Z,3.40
2019-02-12T05:35:11.413Z,3.40
2019-02-12T05:37:14.839Z,3.40
2019-02-12T05:39:18.292Z,3.40
2019-02-12T05:41:21.717Z,3.30
2019-02-12T05:43:25.160Z,3.40
2019-02-12T05:45:28.676Z,3.40
2019-02-12T05:47:32.110Z,3.40
2019-02-12T05:49:35.516Z,3.40
2019-02-12T05:51:39.019Z,3.50
2019-02-12T05:53:42.484Z,3.50
2019-02-12T05:55:45.910Z,3.40
2019-02-12T05:57:49.596Z,3.40
2019-02-12T05:59:53.016Z,3.40
2019-02-12T06:01:56.442Z,3.40
2019-02-12T06:03:59.907Z,3.40
2019-02-12T06:06:03.425Z,3.40
2019-02-12T06:08:06.864Z,3.40
2019-02-12T06:10:10.611Z,3.40
2019-02-12T06:12:14.050Z,3.50
2019-02-12T06:14:17.580Z,3.50
2019-02-12T06:16:21.110Z,3.50
2019-02-12T06:18:24.545Z,3.50
2019-02-12T06:20:28.007Z,3.40
2019-02-12T06:22:31.430Z,3.40
2019-02-12T06:24:34.988Z,3.40
2019-02-12T06:26:38.395Z,3.40
2019-02-12T06:28:41.889Z,3.50
2019-02-12T06:30:45.366Z,3.50
2019-02-12T06:32:48.805Z,3.40
2019-02-12T06:34:52.247Z,3.40
2019-02-12T06:36:55.784Z,3.40
2019-02-12T06:38:59.220Z,3.30
2019-02-12T06:41:02.721Z,3.30
2019-02-12T06:43:06.142Z,3.40
2019-02-12T06:45:09.645Z,3.40
2019-02-12T06:47:13.104Z,3.40
2019-02-12T06:49:16.577Z,3.30
2019-02-12T06:51:20.070Z,3.30
2019-02-12T06:53:23.513Z,3.40
2019-02-12T06:55:27.073Z,3.40
2019-02-12T06:57:30.512Z,3.50
2019-02-12T06:59:33.945Z,3.50
2019-02-12T07:01:37.361Z,3.50
2019-02-12T07:03:58.448Z,3.50
2019-02-12T07:06:06.596Z,3.50
2019-02-12T07:09:17.382Z,3.50
2019-02-12T07:11:27.895Z,3.50
2019-02-12T07:13:35.948Z,3.60
2019-02-12T07:15:49.460Z,3.70
2019-02-12T07:18:01.330Z,3.60
2019-02-12T07:20:15.141Z,3.70
2019-02-12T07:22:26.994Z,3.60
2019-02-12T07:24:40.501Z,3.60
2019-02-12T07:26:54.411Z,3.70
2019-02-12T07:29:03.223Z,3.70
2019-02-12T07:33:14.234Z,3.70
2019-02-12T07:37:31.690Z,3.70
2019-02-12T07:39:38.601Z,3.70
2019-02-12T07:41:46.767Z,3.80
2019-02-12T07:43:57.142Z,3.80
2019-02-12T07:46:11.008Z,3.80
2019-02-12T07:48:20.237Z,3.90
2019-02-12T07:50:33.503Z,3.70
2019-02-12T07:52:57.556Z,3.80
2019-02-12T07:55:12.470Z,3.90
2019-02-12T07:57:21.167Z,3.90
2019-02-12T07:59:30.311Z,3.90
2019-02-12T08:01:39.121Z,4.00
2019-02-12T08:05:48.926Z,4.00
2019-02-12T08:09:59.831Z,4.10
2019-02-12T08:12:11.430Z,4.10
2019-02-12T08:14:20.345Z,4.10
2019-02-12T08:16:27.803Z,4.10
2019-02-12T08:18:36.677Z,4.10
2019-02-12T08:20:45.477Z,4.10
2019-02-12T08:22:58.035Z,4.10
2019-02-12T08:25:10.298Z,4.20
2019-02-12T08:27:19.209Z,4.20
2019-02-12T08:29:28.101Z,4.10
2019-02-12T08:31:40.834Z,4.20
2019-02-12T08:34:20.807Z,4.20
2019-02-12T08:36:30.217Z,4.10
2019-02-12T08:38:45.965Z,4.20
2019-02-12T08:40:56.802Z,4.20
2019-02-12T08:43:07.947Z,4.20
2019-02-12T08:45:23.653Z,4.20
2019-02-12T08:47:32.622Z,4.20
2019-02-12T08:49:44.915Z,4.20
2019-02-12T08:53:54.637Z,4.30
2019-02-12T08:56:04.493Z,4.40
2019-02-12T09:00:14.454Z,4.40
2019-02-12T09:02:22.279Z,4.40
2019-02-12T09:04:30.952Z,4.50
2019-02-12T09:06:43.525Z,4.50
2019-02-12T09:13:12.873Z,4.50
2019-02-12T09:15:22.529Z,4.50
2019-02-12T09:19:32.333Z,4.50
2019-02-12T09:23:43.287Z,4.60
2019-02-12T09:25:52.936Z,4.60
2019-02-12T09:28:05.497Z,4.70
2019-02-12T09:30:13.088Z,4.70
2019-02-12T09:33:28.921Z,4.70
2019-02-12T09:35:36.802Z,4.70
2019-02-12T09:37:46.591Z,4.80
2019-02-12T09:39:55.179Z,4.80
2019-02-12T09:42:06.621Z,4.80
2019-02-12T09:44:15.627Z,4.90
2019-02-12T09:46:23.690Z,4.80
2019-02-12T09:48:36.503Z,4.90
2019-02-12T09:50:42.424Z,4.90
2019-02-12T09:52:51.123Z,5.00
2019-02-12T09:55:12.892Z,5.10
2019-02-12T09:57:19.062Z,5.10
2019-02-12T09:59:43.410Z,5.10
2019-02-12T10:01:56.106Z,5.20
2019-02-12T10:04:34.473Z,5.20
2019-02-12T10:06:44.606Z,5.20
2019-02-12T10:09:04.485Z,5.20
2019-02-12T10:11:28.048Z,5.20
2019-02-12T10:13:41.754Z,5.30
2019-02-12T10:15:54.340Z,5.30
2019-02-12T10:18:04.730Z,5.30
2019-02-12T10:20:16.043Z,5.30
2019-02-12T10:22:40.463Z,5.40
2019-02-12T10:24:49.285Z,5.40
2019-02-12T10:27:57.654Z,5.40
2019-02-12T10:30:07.496Z,5.40
2019-02-12T10:32:10.281Z,5.50
2019-02-12T10:34:13.802Z,5.50
2019-02-12T10:36:17.216Z,5.50
2019-02-12T10:38:20.710Z,5.60
2019-02-12T10:40:24.211Z,5.60
2019-02-12T10:42:27.645Z,5.60
2019-02-12T10:44:31.092Z,5.70
2019-02-12T10:46:34.564Z,5.70
2019-02-12T10:48:38.036Z,5.70
2019-02-12T10:50:41.508Z,5.70
2019-02-12T10:52:45.039Z,5.80
2019-02-12T10:54:48.505Z,5.80
2019-02-12T10:56:51.988Z,5.80
2019-02-12T10:58:55.425Z,5.80
2019-02-12T11:00:58.916Z,5.80
2019-02-12T11:03:02.401Z,5.90
2019-02-12T11:05:06.048Z,5.90
2019-02-12T11:07:09.582Z,6.00
2019-02-12T11:09:13.041Z,6.00
2019-02-12T11:11:16.492Z,6.00
2019-02-12T11:13:20.076Z,6.10
2019-02-12T11:15:23.498Z,6.10
2019-02-12T11:17:26.965Z,6.10
2019-02-12T11:19:30.433Z,6.10
2019-02-12T11:21:33.867Z,6.20
2019-02-12T11:23:37.401Z,6.20
2019-02-12T11:25:41.147Z,6.20
2019-02-12T11:27:44.565Z,6.20
2019-02-12T11:29:48.015Z,6.30
2019-02-12T11:31:51.765Z,6.30
2019-02-12T11:33:55.341Z,6.40
2019-02-12T11:35:58.771Z,6.40
2019-02-12T11:38:02.317Z,6.40
2019-02-12T11:40:06.190Z,6.40
2019-02-12T11:42:10.544Z,6.50
2019-02-12T11:44:14.021Z,6.50
2019-02-12T11:46:17.434Z,6.60
2019-02-12T11:48:20.875Z,6.60
2019-02-12T11:50:24.333Z,6.60
2019-02-12T11:52:28.108Z,6.70
2019-02-12T11:54:31.929Z,6.70
2019-02-12T11:56:35.405Z,6.80
2019-02-12T11:58:39.767Z,6.80
2019-02-12T12:00:47.452Z,6.90
2019-02-12T12:02:50.933Z,7.00
2019-02-12T12:04:54.334Z,7.00
2019-02-12T12:06:57.768Z,7.10
2019-02-12T12:09:01.207Z,7.20
2019-02-12T12:11:05.314Z,7.30
2019-02-12T12:13:08.745Z,7.20
2019-02-12T12:15:12.290Z,7.30
2019-02-12T12:17:15.754Z,7.30
2019-02-12T12:19:19.201Z,7.30
2019-02-12T12:21:23.155Z,7.40
2019-02-12T12:23:26.964Z,7.40
2019-02-12T12:25:30.423Z,7.30
2019-02-12T12:27:33.917Z,7.30
2019-02-12T12:29:37.357Z,7.30
2019-02-12T12:31:41.319Z,7.30
2019-02-12T12:33:44.776Z,7.40
2019-02-12T12:35:48.263Z,7.30
2019-02-12T12:37:51.729Z,7.30
2019-02-12T12:39:55.177Z,7.30
2019-02-12T12:41:58.645Z,7.30
2019-02-12T12:44:02.203Z,7.40
2019-02-12T12:46:06.308Z,7.40
2019-02-12T12:48:09.759Z,7.60
2019-02-12T12:50:13.186Z,7.60
2019-02-12T12:52:16.717Z,7.60
2019-02-12T12:54:21.129Z,7.60
2019-02-12T12:56:24.662Z,7.70
2019-02-12T12:58:28.121Z,7.60
2019-02-12T13:00:31.594Z,7.60
2019-02-12T13:02:35.160Z,7.60
2019-02-12T13:04:38.579Z,7.60
2019-02-12T13:06:42.948Z,7.50
2019-02-12T13:08:47.741Z,7.50
2019-02-12T13:10:51.211Z,7.50
2019-02-12T13:12:54.651Z,7.40
2019-02-12T13:14:58.121Z,7.50
2019-02-12T13:17:01.522Z,7.40
2019-02-12T13:19:04.953Z,7.40
2019-02-12T13:21:14.713Z,7.50
2019-02-12T13:23:18.178Z,7.50
2019-02-12T13:25:21.636Z,7.40
2019-02-12T13:27:25.062Z,7.40
2019-02-12T13:29:28.556Z,7.40
2019-02-12T13:31:32.050Z,7.40
2019-02-12T13:33:35.542Z,7.50
2019-02-12T13:35:39.640Z,7.60
2019-02-12T13:37:43.179Z,7.60
2019-02-12T13:39:46.694Z,7.50
2019-02-12T13:41:50.119Z,7.50
2019-02-12T13:43:53.541Z,7.50
2019-02-12T13:45:57.009Z,7.50
2019-02-12T13:48:00.411Z,7.50
2019-02-12T13:50:04.146Z,7.50
2019-02-12T13:52:07.673Z,7.50
2019-02-12T13:54:11.247Z,7.50
2019-02-12T13:56:14.693Z,7.50
2019-02-12T13:58:18.143Z,7.40
2019-02-12T14:00:21.598Z,7.40
2019-02-12T14:02:25.058Z,7.40
2019-02-12T14:04:28.505Z,7.40
2019-02-12T14:06:31.929Z,7.30
2019-02-12T14:08:35.368Z,7.30
2019-02-12T14:10:38.828Z,7.30
2019-02-12T14:12:42.268Z,7.30
2019-02-12T14:14:45.751Z,7.40
2019-02-12T14:16:49.260Z,7.40
2019-02-12T14:18:52.693Z,7.30
2019-02-12T14:20:56.217Z,7.30
2019-02-12T14:22:59.751Z,7.30
2019-02-12T14:25:03.182Z,7.30
2019-02-12T14:27:06.620Z,7.30
2019-02-12T14:29:10.104Z,7.30
2019-02-12T14:31:13.535Z,7.20
2019-02-12T14:33:16.976Z,7.30
2019-02-12T14:35:20.433Z,7.40
2019-02-12T14:37:23.928Z,7.40
2019-02-12T14:39:27.421Z,7.40
2019-02-12T14:41:30.865Z,7.50
2019-02-12T14:43:35.657Z,7.60
2019-02-12T14:45:39.116Z,7.60
2019-02-12T14:47:42.580Z,7.70
2019-02-12T14:49:46.037Z,7.70
2019-02-12T14:51:49.527Z,7.70
2019-02-12T14:53:52.940Z,7.70
2019-02-12T14:55:56.389Z,7.80
2019-02-12T14:57:59.837Z,7.80
2019-02-12T15:00:03.340Z,7.80
2019-02-12T15:02:06.978Z,7.90
2019-02-12T15:04:10.405Z,7.90
2019-02-12T15:06:13.939Z,7.80
2019-02-12T15:08:17.353Z,7.80
2019-02-12T15:10:20.829Z,7.80
2019-02-12T15:12:24.277Z,7.80
2019-02-12T15:14:27.699Z,7.80
2019-02-12T15:16:31.232Z,7.80
2019-02-12T15:18:34.651Z,7.70
2019-02-12T15:20:38.120Z,7.70
2019-02-12T15:22:41.629Z,7.80
2019-02-12T15:24:45.098Z,7.80
2019-02-12T15:26:48.614Z,7.90
2019-02-12T15:28:52.133Z,7.90
2019-02-12T15:30:55.602Z,7.90
2019-02-12T15:32:59.067Z,8.00
2019-02-12T15:35:02.620Z,8.10
2019-02-12T15:37:06.047Z,8.10
2019-02-12T15:39:09.516Z,8.10
2019-02-12T15:41:13.314Z,8.10
2019-02-12T15:43:16.754Z,8.10
2019-02-12T15:45:20.187Z,8.10
2019-02-12T15:47:23.649Z,8.10
2019-02-12T15:49:27.072Z,8.00
2019-02-12T15:51:30.525Z,8.00
2019-02-12T15:53:34.034Z,8.00
2019-02-12T15:55:42.213Z,8.00
2019-02-12T15:57:45.171Z,7.90
2019-02-12T15:59:44.955Z,7.90
2019-02-12T16:01:49.139Z,7.70
2019-02-12T16:03:51.957Z,7.80
2019-02-12T16:05:57.184Z,7.70
2019-02-12T16:07:58.913Z,7.80
2019-02-12T16:10:02.354Z,7.70
2019-02-12T16:12:06.161Z,7.60
2019-02-12T16:14:10.835Z,7.60
2019-02-12T16:16:14.241Z,7.60
2019-02-12T16:18:17.745Z,7.50
2019-02-12T16:20:21.390Z,7.50
2019-02-12T16:22:24.805Z,7.50
2019-02-12T16:24:28.301Z,7.40
2019-02-12T16:26:31.892Z,7.30
2019-02-12T16:28:35.455Z,7.40
2019-02-12T16:30:38.941Z,7.30
2019-02-12T16:32:42.426Z,7.20
2019-02-12T16:34:45.836Z,7.20
2019-02-12T16:36:49.247Z,7.10
2019-02-12T16:38:52.774Z,7.10
2019-02-12T16:40:56.261Z,7.00
2019-02-12T16:43:00.518Z,7.00
2019-02-12T16:45:04.145Z,7.00
2019-02-12T16:47:07.658Z,7.00
2019-02-12T16:49:11.306Z,6.90
2019-02-12T16:51:14.838Z,6.90
2019-02-12T16:53:18.289Z,6.90
2019-02-12T16:55:21.724Z,6.90
2019-02-12T16:57:25.317Z,6.80
2019-02-12T16:59:28.729Z,6.80
2019-02-12T17:01:32.175Z,6.80
2019-02-12T17:03:35.628Z,6.70
2019-02-12T17:05:39.063Z,6.70
2019-02-12T17:07:43.593Z,6.70
2019-02-12T17:09:52.085Z,6.70
2019-02-12T17:11:50.537Z,6.70
2019-02-12T17:13:53.953Z,6.60
2019-02-12T17:15:57.435Z,6.60
2019-02-12T17:18:00.969Z,6.60
2019-02-12T17:20:04.850Z,6.50
2019-02-12T17:22:09.284Z,6.50
2019-02-12T17:24:12.709Z,6.30
2019-02-12T17:26:16.708Z,6.40
2019-02-12T17:28:19.657Z,6.40
2019-02-12T17:30:23.164Z,6.40
2019-02-12T17:32:26.646Z,6.40
2019-02-12T17:34:31.048Z,6.30
2019-02-12T17:36:34.552Z,6.40
2019-02-12T17:38:37.963Z,6.30
2019-02-12T17:40:41.446Z,6.30
2019-02-12T17:42:44.995Z,6.30
2019-02-12T17:44:48.465Z,6.20
2019-02-12T17:46:51.933Z,6.20
2019-02-12T17:48:55.530Z,6.20
2019-02-12T17:50:59.042Z,6.20
2019-02-12T17:53:02.643Z,6.20
2019-02-12T17:55:06.442Z,6.20
2019-02-12T17:57:15.078Z,6.20
2019-02-12T17:59:19.661Z,6.20
2019-02-12T18:01:23.257Z,6.10
2019-02-12T18:03:27.633Z,6.20
2019-02-12T18:05:31.149Z,6.10
2019-02-12T18:07:34.717Z,6.20
2019-02-12T18:09:38.155Z,6.20
2019-02-12T18:11:41.642Z,6.20
2019-02-12T18:13:45.112Z,6.20
2019-02-12T18:15:48.568Z,6.20
2019-02-12T18:17:55.232Z,6.20
2019-02-12T18:19:59.094Z,6.20
2019-02-12T18:22:02.602Z,6.20
2019-02-12T18:24:07.389Z,6.20
2019-02-12T18:26:12.910Z,6.20
2019-02-12T18:28:16.377Z,6.20
2019-02-12T18:30:19.904Z,6.20
2019-02-12T18:32:23.384Z,6.20
2019-02-12T18:34:26.836Z,6.20
2019-02-12T18:36:30.301Z,6.20
2019-02-12T18:38:34.357Z,6.20
2019-02-12T18:40:37.864Z,6.20
2019-02-12T18:42:41.281Z,6.20
2019-02-12T18:44:45.530Z,6.20
2019-02-12T18:46:50.320Z,6.10
2019-02-12T18:48:53.828Z,6.20
2019-02-12T18:50:57.334Z,6.10
2019-02-12T18:53:00.781Z,6.10
2019-02-12T18:55:04.715Z,6.10
2019-02-12T18:57:08.310Z,6.10
2019-02-12T18:59:12.844Z,6.00
2019-02-12T19:01:16.363Z,6.00
2019-02-12T19:03:22.126Z,6.00
2019-02-12T19:05:25.678Z,5.90
2019-02-12T19:07:29.130Z,5.90
2019-02-12T19:09:32.698Z,5.80
2019-02-12T19:11:36.177Z,5.80
2019-02-12T19:13:39.653Z,5.80
2019-02-12T19:15:43.949Z,5.80
2019-02-12T19:17:49.575Z,5.80
2019-02-12T19:19:53.064Z,5.70
2019-02-12T19:21:56.577Z,5.90
2019-02-12T19:24:00.013Z,5.60
2019-02-12T19:26:03.463Z,5.60
2019-02-12T19:28:06.983Z,5.60
2019-02-12T19:30:11.548Z,5.60
2019-02-12T19:32:15.134Z,5.60
2019-02-12T19:34:18.762Z,5.60
2019-02-12T19:36:22.197Z,5.60
2019-02-12T19:38:25.758Z,5.60
2019-02-12T19:40:29.261Z,5.60
2019-02-12T19:42:32.734Z,5.60
2019-02-12T19:44:36.177Z,5.50
2019-02-12T19:46:39.718Z,5.60
2019-02-12T19:48:43.228Z,5.50
2019-02-12T19:50:46.743Z,5.50
2019-02-12T19:52:50.245Z,5.50
2019-02-12T19:54:53.738Z,5.50
2019-02-12T19:56:58.444Z,5.50
2019-02-12T19:59:00.685Z,5.50
2019-02-12T20:01:05.255Z,5.50
2019-02-12T20:03:08.877Z,5.50
2019-02-12T20:05:12.423Z,5.40
2019-02-12T20:07:15.967Z,5.50
2019-02-12T20:09:21.963Z,5.50
2019-02-12T20:11:25.412Z,5.40
2019-02-12T20:13:29.134Z,5.40
2019-02-12T20:15:32.626Z,5.40
2019-02-12T20:17:36.225Z,5.40
2019-02-12T20:19:39.769Z,5.40
2019-02-12T20:21:43.322Z,5.40
2019-02-12T20:23:47.184Z,5.40
2019-02-12T20:25:51.668Z,5.40
2019-02-12T20:27:55.142Z,5.40
2019-02-12T20:29:58.604Z,5.40
2019-02-12T20:32:02.137Z,5.30
2019-02-12T20:34:05.578Z,5.40
2019-02-12T20:36:09.061Z,5.40
2019-02-12T20:38:12.579Z,5.40
2019-02-12T20:40:16.154Z,5.40
2019-02-12T20:42:19.819Z,5.30
2019-02-12T20:44:23.343Z,5.30
2019-02-12T20:46:26.793Z,5.30
2019-02-12T20:48:30.296Z,5.20
2019-02-12T20:50:33.915Z,5.40
2019-02-12T20:52:37.458Z,5.20
2019-02-12T20:54:40.933Z,5.30
2019-02-12T20:56:44.369Z,5.20
2019-02-12T20:58:47.887Z,5.20
2019-02-12T21:00:52.208Z,5.20
2019-02-12T21:02:55.793Z,5.20
2019-02-12T21:04:59.348Z,5.20
2019-02-12T21:07:02.884Z,5.20
2019-02-12T21:09:06.572Z,5.10
2019-02-12T21:11:10.940Z,5.20
2019-02-12T21:13:14.404Z,5.20
2019-02-12T21:15:18.616Z,5.20
2019-02-12T21:17:22.151Z,5.20
2019-02-12T21:19:26.552Z,5.20
2019-02-12T21:21:30.018Z,5.20
2019-02-12T21:23:33.519Z,5.30
2019-02-12T21:25:37.793Z,5.20
2019-02-12T21:27:41.305Z,5.20
2019-02-12T21:29:45.800Z,5.20
2019-02-12T21:31:51.139Z,5.30
2019-02-12T21:33:53.357Z,5.30
2019-02-12T21:35:56.845Z,5.30
2019-02-12T21:38:10.169Z,5.20
2019-02-12T21:40:14.819Z,5.20
2019-02-12T21:42:18.421Z,5.20
2019-02-12T21:44:21.890Z,5.30
2019-02-12T21:46:26.148Z,5.30
2019-02-12T21:48:29.742Z,5.30
2019-02-12T21:50:33.265Z,5.30
2019-02-12T21:52:36.786Z,5.30
2019-02-12T21:54:40.765Z,5.40
2019-02-12T21:56:44.262Z,5.40
2019-02-12T21:58:47.726Z,5.40
2019-02-12T22:00:51.194Z,5.40
2019-02-12T22:02:54.687Z,5.50
2019-02-12T22:04:58.179Z,5.50
2019-02-12T22:07:01.649Z,5.50
2019-02-12T22:09:05.754Z,5.50
2019-02-12T22:11:10.216Z,5.50
2019-02-12T22:13:14.513Z,5.50
2019-02-12T22:15:18.253Z,5.50
2019-02-12T22:17:22.270Z,5.50
2019-02-12T22:19:25.714Z,5.50
2019-02-12T22:21:29.831Z,5.50
2019-02-12T22:23:33.279Z,5.50
2019-02-12T22:25:36.711Z,5.60
2019-02-12T22:27:40.896Z,5.60
2019-02-12T22:29:44.270Z,5.60
2019-02-12T22:31:47.704Z,5.60
2019-02-12T22:33:51.221Z,5.60
2019-02-12T22:35:54.646Z,5.60
2019-02-12T22:37:58.090Z,5.60
2019-02-12T22:40:01.489Z,5.70
2019-02-12T22:42:04.926Z,5.70
2019-02-12T22:44:09.051Z,5.70
2019-02-12T22:46:12.694Z,5.70
2019-02-12T22:48:16.186Z,5.70
2019-02-12T22:50:19.668Z,5.70
2019-02-12T22:52:23.941Z,5.80
2019-02-12T22:54:27.392Z,5.70
2019-02-12T22:56:31.708Z,5.80
2019-02-12T22:58:35.218Z,5.80
2019-02-12T23:00:49.853Z,5.80
2019-02-12T23:02:53.294Z,5.70
2019-02-12T23:04:56.752Z,5.70
2019-02-12T23:07:00.333Z,5.70
2019-02-12T23:09:03.960Z,5.70
2019-02-12T23:11:07.469Z,5.80
2019-02-12T23:13:10.884Z,5.70
2019-02-12T23:15:15.368Z,5.80
2019-02-12T23:17:18.852Z,5.80
2019-02-12T23:19:23.671Z,5.80
2019-02-12T23:21:28.448Z,5.80
2019-02-12T23:23:31.881Z,5.80
2019-02-12T23:25:35.402Z,5.70
2019-02-12T23:27:38.899Z,5.80
2019-02-12T23:29:42.295Z,5.80
2019-02-12T23:31:45.773Z,5.70
2019-02-12T23:33:49.281Z,5.70
2019-02-12T23:35:52.731Z,5.70
2019-02-12T23:37:56.169Z,5.70
2019-02-12T23:39:59.596Z,5.70
2019-02-12T23:42:03.033Z,5.70
2019-02-12T23:44:06.447Z,5.80
2019-02-12T23:46:10.518Z,5.80
2019-02-12T23:48:13.982Z,5.80
2019-02-12T23:50:19.167Z,5.80
2019-02-12T23:52:22.600Z,5.80
2019-02-12T23:54:26.008Z,5.80
2019-02-12T23:56:29.449Z,5.80
2019-02-12T23:58:32.916Z,5.80
